CheckWX is a tool to help pilots better visualize weather data.  It is not intended as a substitute for an official pre-flight weather briefing.

19:05:30 UTC

CYPO METAR
Peawanuck Airport
Peawanuck, Ontario, Canada
Current

1 hour ago

CYPO 191800Z AUTO 21011G17KT 9SM CLR M18/M25 A3019 RMK SLP235
Observed
Feb-19 @ 18:00 UTC
Wind
  • 210° at 11 KTS
  • Gusting to 17 KTS
Visibility
9 SM
Flight Rules
VFR
Cloud Levels
  • Clear skies
Temperature
-18°C / -0°F
Dewpoint
-25°C / -13°F
Humidity
54%
Altimeter
30.19" Hg
Pressure
1023.5 hPa
Previous

2 hours ago

CYPO 191700Z AUTO 21011G16KT 9SM CLR M20/M26 A3022 RMK SLP244
Observed
Feb-19 @ 17:00 UTC
Wind
  • 210° at 11 KTS
  • Gusting to 16 KTS
Visibility
9 SM
Flight Rules
VFR
Cloud Levels
  • Clear skies
Temperature
-20°C / -4°F
Dewpoint
-26°C / -15°F
Humidity
59%
Altimeter
30.22" Hg
Pressure
1024.4 hPa
Previous

3 hours ago

CYPO 191600Z AUTO 23008G16KT 9SM CLR M23/M28 A3024 RMK SLP250
Observed
Feb-19 @ 16:00 UTC
Wind
  • 230° at 8 KTS
  • Gusting to 16 KTS
Visibility
9 SM
Flight Rules
VFR
Cloud Levels
  • Clear skies
Temperature
-23°C / -9°F
Dewpoint
-28°C / -18°F
Humidity
64%
Altimeter
30.24" Hg
Pressure
1025 hPa